sensor_id;sensor_type;location;lat;lon;timestamp;P1;durP1;ratioP1;P2;durP2;ratioP2
18100;SDS011;9177;49.156;8.142;2023-08-07T00:01:46;46.50;;;41.67;;
18100;SDS011;9177;49.156;8.142;2023-08-07T00:04:14;49.77;;;44.63;;
18100;SDS011;9177;49.156;8.142;2023-08-07T00:06:41;51.00;;;45.73;;
18100;SDS011;9177;49.156;8.142;2023-08-07T00:09:08;52.45;;;46.92;;
18100;SDS011;9177;49.156;8.142;2023-08-07T00:11:35;52.33;;;47.13;;
18100;SDS011;9177;49.156;8.142;2023-08-07T00:14:02;49.03;;;43.90;;
18100;SDS011;9177;49.156;8.142;2023-08-07T00:16:29;50.03;;;44.77;;
18100;SDS011;9177;49.156;8.142;2023-08-07T00:18:55;49.10;;;43.97;;
18100;SDS011;9177;49.156;8.142;2023-08-07T00:21:24;48.27;;;43.17;;
18100;SDS011;9177;49.156;8.142;2023-08-07T00:23:51;46.50;;;41.60;;
18100;SDS011;9177;49.156;8.142;2023-08-07T00:26:20;49.43;;;44.43;;
18100;SDS011;9177;49.156;8.142;2023-08-07T00:28:47;46.63;;;41.80;;
18100;SDS011;9177;49.156;8.142;2023-08-07T00:31:13;47.17;;;42.10;;
18100;SDS011;9177;49.156;8.142;2023-08-07T00:33:40;45.77;;;40.87;;
18100;SDS011;9177;49.156;8.142;2023-08-07T00:36:07;42.47;;;38.27;;
18100;SDS011;9177;49.156;8.142;2023-08-07T00:38:35;44.42;;;39.92;;
18100;SDS011;9177;49.156;8.142;2023-08-07T00:41:02;43.08;;;38.58;;
18100;SDS011;9177;49.156;8.142;2023-08-07T00:43:32;43.77;;;39.20;;
18100;SDS011;9177;49.156;8.142;2023-08-07T00:45:59;42.90;;;38.47;;
18100;SDS011;9177;49.156;8.142;2023-08-07T00:48:26;41.05;;;36.83;;
18100;SDS011;9177;49.156;8.142;2023-08-07T00:50:53;41.40;;;37.23;;
18100;SDS011;9177;49.156;8.142;2023-08-07T00:53:20;42.38;;;37.88;;
18100;SDS011;9177;49.156;8.142;2023-08-07T00:55:49;40.33;;;36.25;;
18100;SDS011;9177;49.156;8.142;2023-08-07T00:58:15;39.30;;;35.45;;
18100;SDS011;9177;49.156;8.142;2023-08-07T01:00:43;39.92;;;35.63;;
18100;SDS011;9177;49.156;8.142;2023-08-07T01:03:10;38.85;;;34.95;;
18100;SDS011;9177;49.156;8.142;2023-08-07T01:05:39;39.13;;;35.13;;
18100;SDS011;9177;49.156;8.142;2023-08-07T01:08:06;38.08;;;34.22;;
18100;SDS011;9177;49.156;8.142;2023-08-07T01:10:35;38.35;;;34.50;;
18100;SDS011;9177;49.156;8.142;2023-08-07T01:13:16;38.67;;;34.67;;
18100;SDS011;9177;49.156;8.142;2023-08-07T01:15:49;37.42;;;33.53;;
18100;SDS011;9177;49.156;8.142;2023-08-07T01:18:32;37.22;;;33.45;;
18100;SDS011;9177;49.156;8.142;2023-08-07T01:21:02;36.38;;;32.72;;
18100;SDS011;9177;49.156;8.142;2023-08-07T01:23:31;35.33;;;31.77;;
18100;SDS011;9177;49.156;8.142;2023-08-07T01:25:58;35.38;;;31.65;;
18100;SDS011;9177;49.156;8.142;2023-08-07T01:28:26;35.30;;;31.85;;
18100;SDS011;9177;49.156;8.142;2023-08-07T01:31:02;34.67;;;31.40;;
18100;SDS011;9177;49.156;8.142;2023-08-07T01:33:38;34.17;;;31.00;;
18100;SDS011;9177;49.156;8.142;2023-08-07T01:36:20;32.67;;;29.38;;
18100;SDS011;9177;49.156;8.142;2023-08-07T01:38:52;34.20;;;30.80;;
18100;SDS011;9177;49.156;8.142;2023-08-07T01:41:20;35.28;;;31.67;;
18100;SDS011;9177;49.156;8.142;2023-08-07T01:43:47;33.05;;;29.65;;
18100;SDS011;9177;49.156;8.142;2023-08-07T01:46:14;32.30;;;29.10;;
18100;SDS011;9177;49.156;8.142;2023-08-07T01:48:42;33.00;;;29.60;;
18100;SDS011;9177;49.156;8.142;2023-08-07T01:51:09;32.83;;;29.63;;
18100;SDS011;9177;49.156;8.142;2023-08-07T01:53:36;32.75;;;29.45;;
18100;SDS011;9177;49.156;8.142;2023-08-07T01:56:04;32.80;;;29.37;;
18100;SDS011;9177;49.156;8.142;2023-08-07T01:58:31;30.17;;;27.17;;
18100;SDS011;9177;49.156;8.142;2023-08-07T02:00:58;30.35;;;27.33;;
18100;SDS011;9177;49.156;8.142;2023-08-07T02:03:25;29.92;;;27.02;;
18100;SDS011;9177;49.156;8.142;2023-08-07T02:05:52;29.80;;;27.00;;
18100;SDS011;9177;49.156;8.142;2023-08-07T02:08:18;29.08;;;26.25;;
18100;SDS011;9177;49.156;8.142;2023-08-07T02:10:45;30.58;;;27.73;;
18100;SDS011;9177;49.156;8.142;2023-08-07T02:13:14;29.17;;;26.17;;
18100;SDS011;9177;49.156;8.142;2023-08-07T02:15:40;29.25;;;26.48;;
18100;SDS011;9177;49.156;8.142;2023-08-07T02:18:07;29.65;;;26.83;;
18100;SDS011;9177;49.156;8.142;2023-08-07T02:20:37;28.63;;;25.73;;
18100;SDS011;9177;49.156;8.142;2023-08-07T02:23:07;28.50;;;25.55;;
18100;SDS011;9177;49.156;8.142;2023-08-07T02:25:34;27.17;;;24.48;;
18100;SDS011;9177;49.156;8.142;2023-08-07T02:28:01;27.35;;;24.75;;
18100;SDS011;9177;49.156;8.142;2023-08-07T02:30:29;26.88;;;24.20;;
18100;SDS011;9177;49.156;8.142;2023-08-07T02:32:57;26.45;;;23.85;;
18100;SDS011;9177;49.156;8.142;2023-08-07T02:35:23;24.92;;;22.58;;
18100;SDS011;9177;49.156;8.142;2023-08-07T02:37:50;25.45;;;23.15;;
18100;SDS011;9177;49.156;8.142;2023-08-07T02:40:17;25.98;;;23.38;;
18100;SDS011;9177;49.156;8.142;2023-08-07T02:42:44;26.70;;;24.17;;
18100;SDS011;9177;49.156;8.142;2023-08-07T02:45:11;24.83;;;22.20;;
18100;SDS011;9177;49.156;8.142;2023-08-07T02:47:40;24.50;;;22.20;;
18100;SDS011;9177;49.156;8.142;2023-08-07T02:50:07;24.80;;;22.50;;
18100;SDS011;9177;49.156;8.142;2023-08-07T02:52:34;24.75;;;22.38;;
18100;SDS011;9177;49.156;8.142;2023-08-07T02:55:01;24.23;;;21.90;;
18100;SDS011;9177;49.156;8.142;2023-08-07T02:57:27;23.48;;;21.08;;
18100;SDS011;9177;49.156;8.142;2023-08-07T02:59:54;23.55;;;21.25;;
18100;SDS011;9177;49.156;8.142;2023-08-07T03:02:21;22.77;;;20.63;;
18100;SDS011;9177;49.156;8.142;2023-08-07T03:04:49;23.08;;;20.83;;
18100;SDS011;9177;49.156;8.142;2023-08-07T03:07:16;22.75;;;20.65;;
18100;SDS011;9177;49.156;8.142;2023-08-07T03:09:44;23.08;;;20.65;;
18100;SDS011;9177;49.156;8.142;2023-08-07T03:12:12;23.02;;;20.88;;
18100;SDS011;9177;49.156;8.142;2023-08-07T03:14:39;22.00;;;19.80;;
18100;SDS011;9177;49.156;8.142;2023-08-07T03:17:07;21.63;;;19.63;;
18100;SDS011;9177;49.156;8.142;2023-08-07T03:19:34;21.83;;;19.73;;
18100;SDS011;9177;49.156;8.142;2023-08-07T03:22:02;22.02;;;20.02;;
18100;SDS011;9177;49.156;8.142;2023-08-07T03:24:29;20.35;;;18.45;;
18100;SDS011;9177;49.156;8.142;2023-08-07T03:26:56;21.33;;;19.13;;
18100;SDS011;9177;49.156;8.142;2023-08-07T03:29:23;21.40;;;19.30;;
18100;SDS011;9177;49.156;8.142;2023-08-07T03:31:50;20.80;;;18.75;;
18100;SDS011;9177;49.156;8.142;2023-08-07T03:34:19;20.13;;;18.30;;
18100;SDS011;9177;49.156;8.142;2023-08-07T03:37:02;19.63;;;17.83;;
18100;SDS011;9177;49.156;8.142;2023-08-07T03:39:29;19.58;;;17.67;;
18100;SDS011;9177;49.156;8.142;2023-08-07T03:41:56;19.58;;;17.65;;
18100;SDS011;9177;49.156;8.142;2023-08-07T03:44:23;18.83;;;17.10;;
18100;SDS011;9177;49.156;8.142;2023-08-07T03:46:50;19.50;;;17.67;;
18100;SDS011;9177;49.156;8.142;2023-08-07T03:49:17;19.73;;;17.40;;
18100;SDS011;9177;49.156;8.142;2023-08-07T03:51:44;19.53;;;17.63;;
18100;SDS011;9177;49.156;8.142;2023-08-07T03:54:12;18.17;;;16.38;;
18100;SDS011;9177;49.156;8.142;2023-08-07T03:56:39;18.45;;;16.65;;
18100;SDS011;9177;49.156;8.142;2023-08-07T03:59:05;17.65;;;16.00;;
18100;SDS011;9177;49.156;8.142;2023-08-07T04:01:32;18.27;;;16.38;;
18100;SDS011;9177;49.156;8.142;2023-08-07T04:04:00;18.50;;;16.38;;
18100;SDS011;9177;49.156;8.142;2023-08-07T04:06:27;16.98;;;15.48;;
18100;SDS011;9177;49.156;8.142;2023-08-07T04:08:54;16.53;;;15.03;;
18100;SDS011;9177;49.156;8.142;2023-08-07T04:11:22;16.67;;;15.13;;
18100;SDS011;9177;49.156;8.142;2023-08-07T04:13:49;16.20;;;14.60;;
18100;SDS011;9177;49.156;8.142;2023-08-07T04:16:16;17.20;;;15.50;;
18100;SDS011;9177;49.156;8.142;2023-08-07T04:18:42;16.67;;;15.07;;
18100;SDS011;9177;49.156;8.142;2023-08-07T04:21:09;15.77;;;14.35;;
18100;SDS011;9177;49.156;8.142;2023-08-07T04:23:36;16.00;;;14.30;;
18100;SDS011;9177;49.156;8.142;2023-08-07T04:26:03;15.80;;;14.40;;
18100;SDS011;9177;49.156;8.142;2023-08-07T04:28:31;15.60;;;14.13;;
18100;SDS011;9177;49.156;8.142;2023-08-07T04:30:58;15.00;;;13.48;;
18100;SDS011;9177;49.156;8.142;2023-08-07T04:33:25;14.85;;;13.30;;
18100;SDS011;9177;49.156;8.142;2023-08-07T04:35:52;14.30;;;13.00;;
18100;SDS011;9177;49.156;8.142;2023-08-07T04:38:19;14.75;;;13.43;;
18100;SDS011;9177;49.156;8.142;2023-08-07T04:40:46;14.02;;;12.73;;
18100;SDS011;9177;49.156;8.142;2023-08-07T04:43:14;13.85;;;12.55;;
18100;SDS011;9177;49.156;8.142;2023-08-07T04:45:43;14.48;;;13.15;;
18100;SDS011;9177;49.156;8.142;2023-08-07T04:48:12;13.18;;;11.98;;
18100;SDS011;9177;49.156;8.142;2023-08-07T04:50:40;14.18;;;12.85;;
18100;SDS011;9177;49.156;8.142;2023-08-07T04:53:07;14.05;;;12.75;;
18100;SDS011;9177;49.156;8.142;2023-08-07T04:55:34;13.07;;;11.93;;
18100;SDS011;9177;49.156;8.142;2023-08-07T04:58:01;13.27;;;12.02;;
18100;SDS011;9177;49.156;8.142;2023-08-07T05:00:28;13.05;;;11.85;;
18100;SDS011;9177;49.156;8.142;2023-08-07T05:02:57;13.27;;;11.98;;
18100;SDS011;9177;49.156;8.142;2023-08-07T05:05:24;12.80;;;11.70;;
18100;SDS011;9177;49.156;8.142;2023-08-07T05:07:50;12.73;;;11.52;;
18100;SDS011;9177;49.156;8.142;2023-08-07T05:10:18;12.77;;;11.57;;
18100;SDS011;9177;49.156;8.142;2023-08-07T05:12:44;12.83;;;11.63;;
18100;SDS011;9177;49.156;8.142;2023-08-07T05:15:11;12.10;;;11.00;;
18100;SDS011;9177;49.156;8.142;2023-08-07T05:17:38;12.60;;;11.37;;
18100;SDS011;9177;49.156;8.142;2023-08-07T05:20:07;11.82;;;10.73;;
18100;SDS011;9177;49.156;8.142;2023-08-07T05:22:36;12.45;;;11.23;;
18100;SDS011;9177;49.156;8.142;2023-08-07T05:25:03;12.02;;;10.93;;
18100;SDS011;9177;49.156;8.142;2023-08-07T05:27:31;11.98;;;10.88;;
18100;SDS011;9177;49.156;8.142;2023-08-07T05:29:59;12.02;;;10.93;;
18100;SDS011;9177;49.156;8.142;2023-08-07T05:32:25;11.30;;;10.30;;
18100;SDS011;9177;49.156;8.142;2023-08-07T05:34:53;10.82;;;9.82;;
18100;SDS011;9177;49.156;8.142;2023-08-07T05:37:22;11.60;;;10.50;;
18100;SDS011;9177;49.156;8.142;2023-08-07T05:39:49;11.03;;;9.93;;
18100;SDS011;9177;49.156;8.142;2023-08-07T05:42:15;12.65;;;10.65;;
18100;SDS011;9177;49.156;8.142;2023-08-07T05:44:42;11.35;;;10.32;;
18100;SDS011;9177;49.156;8.142;2023-08-07T05:47:09;11.55;;;10.45;;
18100;SDS011;9177;49.156;8.142;2023-08-07T05:49:36;11.68;;;10.52;;
18100;SDS011;9177;49.156;8.142;2023-08-07T05:52:04;10.82;;;9.82;;
18100;SDS011;9177;49.156;8.142;2023-08-07T05:54:33;11.45;;;10.25;;
18100;SDS011;9177;49.156;8.142;2023-08-07T05:56:59;11.32;;;10.23;;
18100;SDS011;9177;49.156;8.142;2023-08-07T05:59:26;11.18;;;9.95;;
18100;SDS011;9177;49.156;8.142;2023-08-07T06:01:53;10.32;;;9.43;;
18100;SDS011;9177;49.156;8.142;2023-08-07T06:04:20;10.50;;;9.25;;
18100;SDS011;9177;49.156;8.142;2023-08-07T06:06:48;10.88;;;9.88;;
18100;SDS011;9177;49.156;8.142;2023-08-07T06:09:15;10.90;;;9.73;;
18100;SDS011;9177;49.156;8.142;2023-08-07T06:11:43;10.15;;;9.30;;
18100;SDS011;9177;49.156;8.142;2023-08-07T06:14:10;9.63;;;8.80;;
18100;SDS011;9177;49.156;8.142;2023-08-07T06:16:39;10.52;;;9.52;;
18100;SDS011;9177;49.156;8.142;2023-08-07T06:19:06;10.32;;;9.32;;
18100;SDS011;9177;49.156;8.142;2023-08-07T06:21:34;9.80;;;8.93;;
18100;SDS011;9177;49.156;8.142;2023-08-07T06:24:01;10.30;;;9.40;;
18100;SDS011;9177;49.156;8.142;2023-08-07T06:26:28;9.95;;;9.07;;
18100;SDS011;9177;49.156;8.142;2023-08-07T06:28:56;9.15;;;8.35;;
18100;SDS011;9177;49.156;8.142;2023-08-07T06:31:23;9.32;;;8.40;;
18100;SDS011;9177;49.156;8.142;2023-08-07T06:33:49;9.10;;;8.27;;
18100;SDS011;9177;49.156;8.142;2023-08-07T06:36:16;9.27;;;8.35;;
18100;SDS011;9177;49.156;8.142;2023-08-07T06:38:43;9.20;;;8.40;;
18100;SDS011;9177;49.156;8.142;2023-08-07T06:41:10;9.55;;;8.65;;
18100;SDS011;9177;49.156;8.142;2023-08-07T06:43:37;8.82;;;8.02;;
18100;SDS011;9177;49.156;8.142;2023-08-07T06:46:05;9.23;;;8.32;;
18100;SDS011;9177;49.156;8.142;2023-08-07T06:48:32;8.85;;;8.10;;
18100;SDS011;9177;49.156;8.142;2023-08-07T06:50:59;8.90;;;8.10;;
18100;SDS011;9177;49.156;8.142;2023-08-07T06:53:26;8.93;;;8.13;;
18100;SDS011;9177;49.156;8.142;2023-08-07T06:55:53;8.90;;;8.10;;
18100;SDS011;9177;49.156;8.142;2023-08-07T06:58:20;8.50;;;7.80;;
18100;SDS011;9177;49.156;8.142;2023-08-07T07:00:47;9.55;;;8.65;;
18100;SDS011;9177;49.156;8.142;2023-08-07T07:03:15;9.20;;;8.38;;
18100;SDS011;9177;49.156;8.142;2023-08-07T07:05:42;9.02;;;8.23;;
18100;SDS011;9177;49.156;8.142;2023-08-07T07:08:09;9.18;;;8.38;;
18100;SDS011;9177;49.156;8.142;2023-08-07T07:10:35;8.27;;;7.50;;
18100;SDS011;9177;49.156;8.142;2023-08-07T07:13:02;8.25;;;7.45;;
18100;SDS011;9177;49.156;8.142;2023-08-07T07:15:29;9.18;;;8.38;;
18100;SDS011;9177;49.156;8.142;2023-08-07T07:17:56;8.48;;;7.70;;
18100;SDS011;9177;49.156;8.142;2023-08-07T07:20:25;8.30;;;7.57;;
18100;SDS011;9177;49.156;8.142;2023-08-07T07:22:52;8.25;;;7.45;;
18100;SDS011;9177;49.156;8.142;2023-08-07T07:25:19;8.80;;;8.00;;
18100;SDS011;9177;49.156;8.142;2023-08-07T07:27:46;8.43;;;7.70;;
18100;SDS011;9177;49.156;8.142;2023-08-07T07:30:13;8.93;;;8.03;;
18100;SDS011;9177;49.156;8.142;2023-08-07T07:32:40;8.18;;;7.45;;
18100;SDS011;9177;49.156;8.142;2023-08-07T07:35:07;8.10;;;7.40;;
18100;SDS011;9177;49.156;8.142;2023-08-07T07:37:36;7.53;;;6.93;;
18100;SDS011;9177;49.156;8.142;2023-08-07T07:40:03;8.00;;;7.20;;
18100;SDS011;9177;49.156;8.142;2023-08-07T07:42:31;7.90;;;7.10;;
18100;SDS011;9177;49.156;8.142;2023-08-07T07:44:58;7.90;;;6.85;;
18100;SDS011;9177;49.156;8.142;2023-08-07T07:47:25;8.03;;;7.17;;
18100;SDS011;9177;49.156;8.142;2023-08-07T07:50:03;7.97;;;7.27;;
18100;SDS011;9177;49.156;8.142;2023-08-07T07:52:32;8.35;;;7.57;;
18100;SDS011;9177;49.156;8.142;2023-08-07T07:55:00;7.73;;;7.03;;
18100;SDS011;9177;49.156;8.142;2023-08-07T07:57:33;7.45;;;6.85;;
18100;SDS011;9177;49.156;8.142;2023-08-07T08:00:00;8.00;;;7.20;;
18100;SDS011;9177;49.156;8.142;2023-08-07T08:02:28;8.02;;;7.13;;
18100;SDS011;9177;49.156;8.142;2023-08-07T08:04:55;8.00;;;7.20;;
18100;SDS011;9177;49.156;8.142;2023-08-07T08:07:22;7.83;;;7.00;;
18100;SDS011;9177;49.156;8.142;2023-08-07T08:09:50;9.90;;;7.07;;
18100;SDS011;9177;49.156;8.142;2023-08-07T08:12:18;7.60;;;6.83;;
18100;SDS011;9177;49.156;8.142;2023-08-07T08:14:45;8.80;;;6.93;;
18100;SDS011;9177;49.156;8.142;2023-08-07T08:17:12;7.40;;;6.50;;
18100;SDS011;9177;49.156;8.142;2023-08-07T08:19:42;8.10;;;7.27;;
18100;SDS011;9177;49.156;8.142;2023-08-07T08:22:10;7.27;;;6.50;;
18100;SDS011;9177;49.156;8.142;2023-08-07T08:24:40;7.03;;;6.30;;
18100;SDS011;9177;49.156;8.142;2023-08-07T08:27:07;8.48;;;6.75;;
18100;SDS011;9177;49.156;8.142;2023-08-07T08:29:35;7.85;;;6.47;;
18100;SDS011;9177;49.156;8.142;2023-08-07T08:32:02;7.77;;;6.30;;
18100;SDS011;9177;49.156;8.142;2023-08-07T08:34:29;9.43;;;6.70;;
18100;SDS011;9177;49.156;8.142;2023-08-07T08:36:56;7.78;;;6.75;;
18100;SDS011;9177;49.156;8.142;2023-08-07T08:39:23;6.80;;;6.20;;
18100;SDS011;9177;49.156;8.142;2023-08-07T08:41:50;8.15;;;6.43;;
18100;SDS011;9177;49.156;8.142;2023-08-07T08:44:17;7.40;;;6.70;;
18100;SDS011;9177;49.156;8.142;2023-08-07T08:46:50;6.97;;;6.20;;
18100;SDS011;9177;49.156;8.142;2023-08-07T08:49:20;7.15;;;6.47;;
18100;SDS011;9177;49.156;8.142;2023-08-07T08:51:54;6.88;;;6.18;;
18100;SDS011;9177;49.156;8.142;2023-08-07T08:54:21;6.88;;;5.82;;
18100;SDS011;9177;49.156;8.142;2023-08-07T08:56:48;6.80;;;6.20;;
18100;SDS011;9177;49.156;8.142;2023-08-07T08:59:19;7.03;;;6.32;;
18100;SDS011;9177;49.156;8.142;2023-08-07T09:01:46;6.65;;;6.00;;
18100;SDS011;9177;49.156;8.142;2023-08-07T09:04:17;7.15;;;6.45;;
18100;SDS011;9177;49.156;8.142;2023-08-07T09:06:45;7.30;;;6.30;;
18100;SDS011;9177;49.156;8.142;2023-08-07T09:09:13;6.93;;;6.32;;
18100;SDS011;9177;49.156;8.142;2023-08-07T09:11:41;6.95;;;6.25;;
18100;SDS011;9177;49.156;8.142;2023-08-07T09:14:10;6.45;;;5.85;;
18100;SDS011;9177;49.156;8.142;2023-08-07T09:16:41;6.35;;;5.75;;
18100;SDS011;9177;49.156;8.142;2023-08-07T09:19:10;7.13;;;5.75;;
18100;SDS011;9177;49.156;8.142;2023-08-07T09:21:38;6.45;;;5.85;;
18100;SDS011;9177;49.156;8.142;2023-08-07T09:24:05;6.63;;;6.03;;
18100;SDS011;9177;49.156;8.142;2023-08-07T09:26:32;6.47;;;5.88;;
18100;SDS011;9177;49.156;8.142;2023-08-07T09:28:59;6.85;;;6.13;;
18100;SDS011;9177;49.156;8.142;2023-08-07T09:31:27;6.72;;;5.82;;
18100;SDS011;9177;49.156;8.142;2023-08-07T09:34:00;6.50;;;5.90;;
18100;SDS011;9177;49.156;8.142;2023-08-07T09:36:29;6.45;;;5.75;;
18100;SDS011;9177;49.156;8.142;2023-08-07T09:38:58;7.45;;;6.25;;
18100;SDS011;9177;49.156;8.142;2023-08-07T09:41:28;6.47;;;5.88;;
18100;SDS011;9177;49.156;8.142;2023-08-07T09:43:55;6.45;;;5.63;;
18100;SDS011;9177;49.156;8.142;2023-08-07T09:46:22;6.40;;;5.65;;
18100;SDS011;9177;49.156;8.142;2023-08-07T09:48:52;6.78;;;5.75;;
18100;SDS011;9177;49.156;8.142;2023-08-07T09:51:23;5.53;;;5.03;;
18100;SDS011;9177;49.156;8.142;2023-08-07T09:53:51;7.75;;;5.47;;
18100;SDS011;9177;49.156;8.142;2023-08-07T09:56:19;7.25;;;5.65;;
18100;SDS011;9177;49.156;8.142;2023-08-07T09:58:47;5.75;;;5.20;;
18100;SDS011;9177;49.156;8.142;2023-08-07T10:01:15;9.35;;;5.38;;
18100;SDS011;9177;49.156;8.142;2023-08-07T10:03:42;8.75;;;6.35;;
18100;SDS011;9177;49.156;8.142;2023-08-07T10:06:10;9.65;;;6.00;;
18100;SDS011;9177;49.156;8.142;2023-08-07T10:08:38;6.28;;;5.63;;
18100;SDS011;9177;49.156;8.142;2023-08-07T10:11:08;7.80;;;5.55;;
18100;SDS011;9177;49.156;8.142;2023-08-07T10:13:37;7.03;;;5.28;;
18100;SDS011;9177;49.156;8.142;2023-08-07T10:16:06;7.38;;;5.32;;
18100;SDS011;9177;49.156;8.142;2023-08-07T10:18:34;9.32;;;5.60;;
18100;SDS011;9177;49.156;8.142;2023-08-07T10:21:03;7.47;;;4.80;;
18100;SDS011;9177;49.156;8.142;2023-08-07T10:23:31;8.05;;;5.22;;
18100;SDS011;9177;49.156;8.142;2023-08-07T10:26:00;8.50;;;5.20;;
18100;SDS011;9177;49.156;8.142;2023-08-07T10:28:30;6.60;;;4.95;;
18100;SDS011;9177;49.156;8.142;2023-08-07T10:31:00;6.07;;;5.15;;
18100;SDS011;9177;49.156;8.142;2023-08-07T10:33:27;8.00;;;5.10;;
18100;SDS011;9177;49.156;8.142;2023-08-07T10:35:55;5.27;;;4.80;;
18100;SDS011;9177;49.156;8.142;2023-08-07T10:38:24;5.83;;;4.70;;
18100;SDS011;9177;49.156;8.142;2023-08-07T10:40:58;6.10;;;5.50;;
18100;SDS011;9177;49.156;8.142;2023-08-07T10:43:35;5.87;;;4.97;;
18100;SDS011;9177;49.156;8.142;2023-08-07T10:46:04;5.27;;;4.77;;
18100;SDS011;9177;49.156;8.142;2023-08-07T10:48:39;5.43;;;4.93;;
18100;SDS011;9177;49.156;8.142;2023-08-07T10:51:08;7.23;;;5.00;;
18100;SDS011;9177;49.156;8.142;2023-08-07T10:53:35;5.80;;;5.00;;
18100;SDS011;9177;49.156;8.142;2023-08-07T10:56:04;5.32;;;4.70;;
18100;SDS011;9177;49.156;8.142;2023-08-07T10:58:34;6.40;;;4.80;;
18100;SDS011;9177;49.156;8.142;2023-08-07T11:01:21;7.60;;;4.80;;
18100;SDS011;9177;49.156;8.142;2023-08-07T11:03:54;6.55;;;4.55;;
18100;SDS011;9177;49.156;8.142;2023-08-07T11:06:23;5.55;;;5.05;;
18100;SDS011;9177;49.156;8.142;2023-08-07T11:08:51;4.07;;;3.78;;
18100;SDS011;9177;49.156;8.142;2023-08-07T11:11:18;5.40;;;4.90;;
18100;SDS011;9177;49.156;8.142;2023-08-07T11:13:46;5.38;;;4.75;;
18100;SDS011;9177;49.156;8.142;2023-08-07T11:16:13;5.25;;;4.40;;
18100;SDS011;9177;49.156;8.142;2023-08-07T11:18:41;6.25;;;5.30;;
18100;SDS011;9177;49.156;8.142;2023-08-07T11:21:09;5.78;;;4.90;;
18100;SDS011;9177;49.156;8.142;2023-08-07T11:23:37;5.22;;;4.72;;
18100;SDS011;9177;49.156;8.142;2023-08-07T11:26:04;7.15;;;4.80;;
18100;SDS011;9177;49.156;8.142;2023-08-07T11:28:31;4.38;;;3.97;;
18100;SDS011;9177;49.156;8.142;2023-08-07T11:30:58;5.32;;;4.82;;
18100;SDS011;9177;49.156;8.142;2023-08-07T11:33:26;6.88;;;4.30;;
18100;SDS011;9177;49.156;8.142;2023-08-07T11:35:55;6.03;;;4.13;;
18100;SDS011;9177;49.156;8.142;2023-08-07T11:38:29;5.57;;;4.50;;
18100;SDS011;9177;49.156;8.142;2023-08-07T11:40:57;5.23;;;4.73;;
18100;SDS011;9177;49.156;8.142;2023-08-07T11:43:26;5.00;;;4.50;;
18100;SDS011;9177;49.156;8.142;2023-08-07T11:45:55;4.68;;;4.28;;
18100;SDS011;9177;49.156;8.142;2023-08-07T11:48:23;5.78;;;4.63;;
18100;SDS011;9177;49.156;8.142;2023-08-07T11:50:52;5.18;;;4.13;;
18100;SDS011;9177;49.156;8.142;2023-08-07T11:53:21;4.50;;;4.10;;
18100;SDS011;9177;49.156;8.142;2023-08-07T11:55:52;5.05;;;4.10;;
18100;SDS011;9177;49.156;8.142;2023-08-07T11:58:21;9.38;;;4.47;;
18100;SDS011;9177;49.156;8.142;2023-08-07T12:00:49;6.55;;;4.30;;
18100;SDS011;9177;49.156;8.142;2023-08-07T12:03:26;4.60;;;4.20;;
18100;SDS011;9177;49.156;8.142;2023-08-07T12:05:56;4.47;;;4.03;;
18100;SDS011;9177;49.156;8.142;2023-08-07T12:08:23;4.05;;;3.75;;
18100;SDS011;9177;49.156;8.142;2023-08-07T12:10:51;8.25;;;4.03;;
18100;SDS011;9177;49.156;8.142;2023-08-07T12:13:20;6.00;;;3.90;;
18100;SDS011;9177;49.156;8.142;2023-08-07T12:15:51;7.97;;;3.83;;
18100;SDS011;9177;49.156;8.142;2023-08-07T12:18:18;4.47;;;3.90;;
18100;SDS011;9177;49.156;8.142;2023-08-07T12:20:46;4.53;;;3.80;;
18100;SDS011;9177;49.156;8.142;2023-08-07T12:23:15;9.13;;;4.30;;
18100;SDS011;9177;49.156;8.142;2023-08-07T12:25:42;5.57;;;3.85;;
18100;SDS011;9177;49.156;8.142;2023-08-07T12:28:10;5.13;;;3.70;;
18100;SDS011;9177;49.156;8.142;2023-08-07T12:30:37;6.05;;;3.70;;
18100;SDS011;9177;49.156;8.142;2023-08-07T12:33:04;8.23;;;3.85;;
18100;SDS011;9177;49.156;8.142;2023-08-07T12:35:32;5.63;;;3.85;;
18100;SDS011;9177;49.156;8.142;2023-08-07T12:37:59;6.28;;;3.75;;
18100;SDS011;9177;49.156;8.142;2023-08-07T12:40:29;4.53;;;3.90;;
18100;SDS011;9177;49.156;8.142;2023-08-07T12:42:57;5.60;;;3.92;;
18100;SDS011;9177;49.156;8.142;2023-08-07T12:45:24;5.95;;;3.60;;
18100;SDS011;9177;49.156;8.142;2023-08-07T12:47:51;4.32;;;3.88;;
18100;SDS011;9177;49.156;8.142;2023-08-07T12:50:18;3.85;;;3.47;;
18100;SDS011;9177;49.156;8.142;2023-08-07T12:52:45;3.90;;;3.50;;
18100;SDS011;9177;49.156;8.142;2023-08-07T12:55:12;7.78;;;3.97;;
18100;SDS011;9177;49.156;8.142;2023-08-07T12:57:41;4.40;;;3.60;;
18100;SDS011;9177;49.156;8.142;2023-08-07T13:00:09;4.63;;;3.25;;
18100;SDS011;9177;49.156;8.142;2023-08-07T13:02:38;4.65;;;3.50;;
18100;SDS011;9177;49.156;8.142;2023-08-07T13:05:05;4.32;;;3.42;;
18100;SDS011;9177;49.156;8.142;2023-08-07T13:07:33;7.78;;;3.72;;
18100;SDS011;9177;49.156;8.142;2023-08-07T13:10:00;5.80;;;3.20;;
18100;SDS011;9177;49.156;8.142;2023-08-07T13:12:27;5.65;;;3.67;;
18100;SDS011;9177;49.156;8.142;2023-08-07T13:14:55;5.88;;;3.78;;
18100;SDS011;9177;49.156;8.142;2023-08-07T13:17:22;5.70;;;3.88;;
18100;SDS011;9177;49.156;8.142;2023-08-07T13:19:49;6.53;;;3.60;;
18100;SDS011;9177;49.156;8.142;2023-08-07T13:22:16;5.88;;;4.00;;
18100;SDS011;9177;49.156;8.142;2023-08-07T13:24:43;3.65;;;3.08;;
18100;SDS011;9177;49.156;8.142;2023-08-07T13:27:10;5.95;;;3.33;;
18100;SDS011;9177;49.156;8.142;2023-08-07T13:29:37;3.25;;;2.95;;
18100;SDS011;9177;49.156;8.142;2023-08-07T13:32:06;3.67;;;3.17;;
18100;SDS011;9177;49.156;8.142;2023-08-07T13:34:34;5.47;;;3.20;;
18100;SDS011;9177;49.156;8.142;2023-08-07T13:37:01;9.88;;;3.13;;
18100;SDS011;9177;49.156;8.142;2023-08-07T13:39:28;4.70;;;3.03;;
18100;SDS011;9177;49.156;8.142;2023-08-07T13:41:55;4.47;;;3.80;;
18100;SDS011;9177;49.156;8.142;2023-08-07T13:44:22;3.72;;;2.75;;
18100;SDS011;9177;49.156;8.142;2023-08-07T13:46:49;3.83;;;3.10;;
18100;SDS011;9177;49.156;8.142;2023-08-07T13:49:17;6.57;;;3.53;;
18100;SDS011;9177;49.156;8.142;2023-08-07T13:51:45;4.43;;;3.60;;
18100;SDS011;9177;49.156;8.142;2023-08-07T13:54:13;7.38;;;3.67;;
18100;SDS011;9177;49.156;8.142;2023-08-07T13:56:40;5.40;;;3.35;;
18100;SDS011;9177;49.156;8.142;2023-08-07T13:59:06;5.45;;;3.83;;
18100;SDS011;9177;49.156;8.142;2023-08-07T14:01:34;3.97;;;3.10;;
18100;SDS011;9177;49.156;8.142;2023-08-07T14:04:02;6.25;;;3.40;;
18100;SDS011;9177;49.156;8.142;2023-08-07T14:06:30;4.35;;;3.58;;
18100;SDS011;9177;49.156;8.142;2023-08-07T14:08:57;3.95;;;3.53;;
18100;SDS011;9177;49.156;8.142;2023-08-07T14:11:24;4.53;;;3.40;;
18100;SDS011;9177;49.156;8.142;2023-08-07T14:13:55;5.25;;;3.42;;
18100;SDS011;9177;49.156;8.142;2023-08-07T14:16:22;4.25;;;3.50;;
18100;SDS011;9177;49.156;8.142;2023-08-07T14:18:49;6.53;;;3.50;;
18100;SDS011;9177;49.156;8.142;2023-08-07T14:21:16;6.40;;;3.67;;
18100;SDS011;9177;49.156;8.142;2023-08-07T14:23:46;3.53;;;3.22;;
18100;SDS011;9177;49.156;8.142;2023-08-07T14:26:15;4.30;;;3.42;;
18100;SDS011;9177;49.156;8.142;2023-08-07T14:28:43;4.70;;;2.88;;
18100;SDS011;9177;49.156;8.142;2023-08-07T14:31:10;5.70;;;3.45;;
18100;SDS011;9177;49.156;8.142;2023-08-07T14:33:37;6.90;;;3.40;;
18100;SDS011;9177;49.156;8.142;2023-08-07T14:36:04;4.38;;;3.20;;
18100;SDS011;9177;49.156;8.142;2023-08-07T14:38:31;8.23;;;3.63;;
18100;SDS011;9177;49.156;8.142;2023-08-07T14:40:59;5.22;;;3.17;;
18100;SDS011;9177;49.156;8.142;2023-08-07T14:43:28;11.07;;;3.65;;
18100;SDS011;9177;49.156;8.142;2023-08-07T14:45:56;6.00;;;3.55;;
18100;SDS011;9177;49.156;8.142;2023-08-07T14:48:23;9.63;;;3.47;;
18100;SDS011;9177;49.156;8.142;2023-08-07T14:50:50;6.72;;;3.67;;
18100;SDS011;9177;49.156;8.142;2023-08-07T14:53:17;4.00;;;3.50;;
18100;SDS011;9177;49.156;8.142;2023-08-07T14:55:44;5.60;;;3.13;;